createdAt,value
2018-08-19T00:00:32.027Z,0.00
2018-08-19T00:01:32.057Z,0.00
2018-08-19T00:02:32.079Z,0.00
2018-08-19T00:03:32.099Z,0.00
2018-08-19T00:04:32.128Z,0.00
2018-08-19T00:05:32.183Z,0.00
2018-08-19T00:06:32.198Z,0.00
2018-08-19T00:07:32.261Z,0.00
2018-08-19T00:08:32.234Z,0.00
2018-08-19T00:09:32.256Z,0.00
2018-08-19T00:10:32.286Z,0.00
2018-08-19T00:11:32.306Z,0.00
2018-08-19T00:12:32.333Z,0.00
2018-08-19T00:13:32.362Z,0.00
2018-08-19T00:14:32.389Z,0.00
2018-08-19T00:15:32.411Z,0.00
2018-08-19T00:16:32.437Z,0.00
2018-08-19T00:18:32.481Z,0.00
2018-08-19T00:19:32.514Z,0.00
2018-08-19T00:20:32.541Z,0.00
2018-08-19T00:21:32.568Z,0.00
2018-08-19T00:22:32.582Z,0.00
2018-08-19T00:23:32.630Z,0.00
2018-08-19T00:24:32.637Z,0.00
2018-08-19T00:25:32.665Z,0.00
2018-08-19T00:26:32.713Z,0.00
2018-08-19T00:27:32.726Z,0.00
2018-08-19T00:28:32.736Z,0.00
2018-08-19T00:29:32.766Z,0.00
2018-08-19T00:30:32.793Z,0.00
2018-08-19T00:31:32.833Z,0.00
2018-08-19T00:32:32.841Z,0.00
2018-08-19T00:33:32.870Z,0.00
2018-08-19T00:34:32.892Z,0.00
2018-08-19T00:35:32.923Z,0.00
2018-08-19T00:36:32.942Z,0.00
2018-08-19T00:37:32.972Z,0.00
2018-08-19T00:38:33.001Z,0.00
2018-08-19T00:39:33.027Z,0.00
2018-08-19T00:40:33.040Z,0.00
2018-08-19T00:41:33.067Z,0.00
2018-08-19T00:42:33.116Z,0.00
2018-08-19T00:43:33.118Z,0.00
2018-08-19T00:45:33.175Z,0.00
2018-08-19T00:46:33.202Z,0.00
2018-08-19T00:47:33.227Z,0.00
2018-08-19T00:48:33.247Z,0.00
2018-08-19T00:49:33.275Z,0.00
2018-08-19T00:50:33.331Z,0.00
2018-08-19T00:51:33.326Z,0.00
2018-08-19T00:52:33.348Z,0.00
2018-08-19T00:53:33.374Z,0.00
2018-08-19T00:55:33.427Z,0.00
2018-08-19T00:56:33.457Z,0.00
2018-08-19T00:57:33.471Z,0.00
2018-08-19T00:58:33.500Z,0.00
2018-08-19T00:59:33.530Z,0.00
2018-08-19T01:00:33.563Z,0.00
2018-08-19T01:01:33.578Z,0.00
2018-08-19T01:02:33.604Z,0.00
2018-08-19T01:03:33.671Z,0.00
2018-08-19T01:04:33.658Z,0.00
2018-08-19T01:05:33.675Z,0.00
2018-08-19T01:06:33.706Z,0.00
2018-08-19T01:07:33.790Z,0.00
2018-08-19T01:08:33.747Z,0.00
2018-08-19T01:09:33.778Z,0.00
2018-08-19T01:10:33.806Z,0.00
2018-08-19T01:11:33.830Z,0.00
2018-08-19T01:12:33.860Z,0.00
2018-08-19T01:13:33.884Z,0.00
2018-08-19T01:14:33.903Z,0.00
2018-08-19T01:15:33.932Z,0.00
2018-08-19T01:16:33.954Z,0.00
2018-08-19T01:17:33.977Z,0.00
2018-08-19T01:18:34.005Z,0.00
2018-08-19T01:19:34.037Z,0.00
2018-08-19T01:20:34.055Z,0.00
2018-08-19T01:21:34.123Z,0.00
2018-08-19T01:22:35.048Z,0.00
2018-08-19T01:23:34.138Z,0.00
2018-08-19T01:24:34.158Z,0.00
2018-08-19T01:25:35.044Z,0.00
2018-08-19T01:26:34.214Z,0.00
2018-08-19T01:27:34.240Z,0.00
2018-08-19T01:28:34.256Z,0.00
2018-08-19T01:29:34.278Z,0.00
2018-08-19T01:30:34.311Z,0.00
2018-08-19T01:31:34.334Z,0.00
2018-08-19T01:32:34.355Z,0.00
2018-08-19T01:33:34.392Z,0.00
2018-08-19T01:34:34.406Z,0.00
2018-08-19T01:35:34.429Z,0.00
2018-08-19T01:36:34.462Z,0.00
2018-08-19T01:37:34.489Z,0.00
2018-08-19T01:38:34.511Z,0.00
2018-08-19T01:39:34.534Z,0.00
2018-08-19T01:40:34.558Z,0.00
2018-08-19T01:41:34.592Z,0.00
2018-08-19T01:42:34.609Z,0.00
2018-08-19T01:43:34.649Z,0.00
2018-08-19T01:44:34.660Z,0.00
2018-08-19T01:45:34.686Z,0.00
2018-08-19T01:46:34.718Z,0.00
2018-08-19T01:47:34.732Z,0.00
2018-08-19T01:48:34.768Z,0.00
2018-08-19T01:49:34.781Z,0.00
2018-08-19T01:50:34.818Z,0.00
2018-08-19T01:51:34.833Z,0.00
2018-08-19T01:52:34.869Z,0.00
2018-08-19T01:53:34.879Z,0.00
2018-08-19T01:54:34.908Z,0.00
2018-08-19T01:55:34.932Z,0.00
2018-08-19T01:56:34.974Z,0.00
2018-08-19T01:57:34.996Z,0.00
2018-08-19T01:58:35.012Z,0.00
2018-08-19T01:59:35.036Z,0.00
2018-08-19T02:00:35.136Z,0.00
2018-08-19T02:01:35.085Z,0.00
2018-08-19T02:02:35.119Z,0.00
2018-08-19T02:03:35.146Z,0.00
2018-08-19T02:04:35.160Z,0.00
2018-08-19T02:05:35.184Z,0.00
2018-08-19T02:06:35.220Z,0.00
2018-08-19T02:07:35.250Z,0.00
2018-08-19T02:08:35.257Z,0.00
2018-08-19T02:09:35.286Z,0.00
2018-08-19T02:10:35.315Z,0.00
2018-08-19T02:11:35.334Z,0.00
2018-08-19T02:12:35.357Z,0.00
2018-08-19T02:13:35.377Z,0.00
2018-08-19T02:14:35.404Z,0.00
2018-08-19T02:15:35.432Z,0.00
2018-08-19T02:16:35.462Z,0.00
2018-08-19T02:17:35.480Z,0.00
2018-08-19T02:18:35.508Z,0.00
2018-08-19T02:20:35.570Z,0.00
2018-08-19T02:21:35.591Z,0.00
2018-08-19T02:22:35.661Z,0.00
2018-08-19T02:23:35.632Z,0.00
2018-08-19T02:24:35.665Z,0.00
2018-08-19T02:25:35.681Z,0.00
2018-08-19T02:26:35.713Z,0.00
2018-08-19T02:27:35.732Z,0.00
2018-08-19T02:28:35.764Z,0.00
2018-08-19T02:29:35.782Z,0.00
2018-08-19T02:30:35.805Z,0.00
2018-08-19T02:31:35.824Z,0.00
2018-08-19T02:32:35.866Z,0.00
2018-08-19T02:33:35.884Z,0.00
2018-08-19T02:34:35.908Z,0.00
2018-08-19T02:35:35.926Z,0.00
2018-08-19T02:36:35.948Z,0.00
2018-08-19T02:37:35.971Z,0.00
2018-08-19T02:38:36.001Z,0.00
2018-08-19T02:39:36.032Z,0.00
2018-08-19T02:40:36.052Z,0.00
2018-08-19T02:41:36.079Z,0.00
2018-08-19T02:42:36.095Z,0.00
2018-08-19T02:43:36.122Z,0.00
2018-08-19T02:44:36.151Z,0.00
2018-08-19T02:45:36.175Z,0.00
2018-08-19T02:46:36.202Z,0.00
2018-08-19T02:47:36.226Z,0.00
2018-08-19T02:48:36.250Z,0.00
2018-08-19T02:49:36.272Z,0.00
2018-08-19T02:50:36.299Z,0.00
2018-08-19T02:51:36.318Z,0.00
2018-08-19T02:52:36.345Z,0.00
2018-08-19T02:53:36.370Z,0.00
2018-08-19T02:54:36.393Z,0.00
2018-08-19T02:55:36.425Z,0.00
2018-08-19T02:56:36.446Z,0.00
2018-08-19T02:57:36.471Z,0.00
2018-08-19T02:58:36.492Z,0.00
2018-08-19T02:59:36.524Z,0.00
2018-08-19T03:01:36.567Z,0.00
2018-08-19T03:02:36.600Z,0.00
2018-08-19T03:03:36.631Z,0.00
2018-08-19T03:04:36.652Z,0.00
2018-08-19T03:05:36.678Z,0.00
2018-08-19T03:06:36.692Z,0.00
2018-08-19T03:07:36.717Z,0.00
2018-08-19T03:08:36.740Z,0.00
2018-08-19T03:09:36.794Z,0.00
2018-08-19T03:10:36.793Z,0.00
2018-08-19T03:11:36.815Z,0.00
2018-08-19T03:12:36.839Z,0.00
2018-08-19T03:13:36.873Z,0.00
2018-08-19T03:14:36.899Z,0.00
2018-08-19T03:15:36.916Z,0.00
2018-08-19T03:16:36.943Z,0.00
2018-08-19T03:17:36.963Z,0.00
2018-08-19T03:18:36.990Z,0.00
2018-08-19T03:19:37.022Z,0.00
2018-08-19T03:20:37.031Z,0.00
2018-08-19T03:21:37.068Z,0.00
2018-08-19T03:22:37.086Z,0.00
2018-08-19T03:23:37.110Z,0.00
2018-08-19T03:24:37.135Z,0.00
2018-08-19T03:25:37.161Z,0.00
2018-08-19T03:26:37.183Z,0.00
2018-08-19T03:27:37.212Z,0.00
2018-08-19T03:28:37.234Z,0.00
2018-08-19T03:29:37.256Z,0.00
2018-08-19T03:30:37.286Z,0.00
2018-08-19T03:31:37.308Z,0.00
2018-08-19T03:32:37.328Z,0.00
2018-08-19T03:33:37.357Z,0.00
2018-08-19T03:34:37.389Z,0.00
2018-08-19T03:35:37.404Z,0.00
2018-08-19T03:36:37.427Z,0.00
2018-08-19T03:37:37.457Z,0.00
2018-08-19T03:38:37.480Z,0.00
2018-08-19T03:39:37.502Z,0.00
2018-08-19T03:40:37.536Z,0.00
2018-08-19T03:41:37.561Z,0.00
2018-08-19T03:42:37.578Z,0.00
2018-08-19T03:43:37.603Z,0.00
2018-08-19T03:44:37.627Z,0.00
2018-08-19T03:45:37.651Z,0.00
2018-08-19T03:46:37.675Z,0.00
2018-08-19T03:47:37.700Z,0.00
2018-08-19T03:48:37.776Z,0.00
2018-08-19T03:49:37.783Z,0.00
2018-08-19T03:50:37.782Z,0.00
2018-08-19T03:51:37.800Z,0.00
2018-08-19T03:52:37.817Z,0.00
2018-08-19T03:53:37.839Z,0.00
2018-08-19T03:54:37.877Z,0.00
2018-08-19T03:55:37.899Z,0.00
2018-08-19T03:56:37.925Z,0.00
2018-08-19T03:57:37.944Z,0.00
2018-08-19T03:58:37.967Z,0.00
2018-08-19T03:59:38.000Z,0.00
2018-08-19T04:00:38.021Z,0.00
2018-08-19T04:01:38.040Z,0.00
2018-08-19T04:02:38.063Z,0.00
2018-08-19T04:03:38.141Z,0.00
2018-08-19T04:04:38.112Z,0.00
2018-08-19T04:05:38.139Z,0.00
2018-08-19T04:06:38.164Z,0.00
2018-08-19T04:07:38.197Z,0.00
2018-08-19T04:08:38.204Z,0.00
2018-08-19T04:09:38.232Z,0.00
2018-08-19T04:10:38.262Z,0.00
2018-08-19T04:11:38.340Z,0.00
2018-08-19T04:12:38.305Z,0.00
2018-08-19T04:13:38.331Z,0.00
2018-08-19T04:14:38.528Z,4.00
2018-08-19T04:15:38.384Z,4.00
2018-08-19T04:16:38.412Z,4.00
2018-08-19T04:17:38.429Z,4.00
2018-08-19T04:18:38.466Z,4.00
2018-08-19T04:19:38.474Z,0.00
2018-08-19T04:20:38.501Z,0.00
2018-08-19T04:21:38.529Z,0.00
2018-08-19T04:22:38.550Z,0.00
2018-08-19T04:23:38.650Z,4.00
2018-08-19T04:24:38.648Z,4.00
2018-08-19T04:25:38.643Z,4.00
2018-08-19T04:26:38.652Z,4.00
2018-08-19T04:27:38.675Z,4.00
2018-08-19T04:28:38.694Z,4.00
2018-08-19T04:29:38.717Z,4.00
2018-08-19T04:30:38.746Z,8.00
2018-08-19T04:31:38.768Z,4.00
2018-08-19T04:32:38.795Z,4.00
2018-08-19T04:33:38.817Z,8.00
2018-08-19T04:34:38.845Z,8.00
2018-08-19T04:35:38.869Z,8.00
2018-08-19T04:36:38.891Z,8.00
2018-08-19T04:37:38.911Z,8.00
2018-08-19T04:38:38.988Z,12.00
2018-08-19T04:39:39.015Z,8.00
2018-08-19T04:40:38.990Z,8.00
2018-08-19T04:41:39.008Z,12.00
2018-08-19T04:42:39.042Z,8.00
2018-08-19T04:43:39.068Z,12.00
2018-08-19T04:44:39.087Z,12.00
2018-08-19T04:45:39.115Z,12.00
2018-08-19T04:46:39.165Z,16.00
2018-08-19T04:47:39.176Z,16.00
2018-08-19T04:48:39.186Z,16.00
2018-08-19T04:49:39.205Z,16.00
2018-08-19T04:50:39.234Z,20.00
2018-08-19T04:51:39.256Z,20.00
2018-08-19T04:52:39.278Z,16.00
2018-08-19T04:53:39.299Z,20.00
2018-08-19T04:55:39.357Z,20.00
2018-08-19T04:56:39.379Z,24.00
2018-08-19T04:57:39.393Z,24.00
2018-08-19T04:58:39.423Z,24.00
2018-08-19T04:59:39.456Z,24.00
2018-08-19T05:00:39.475Z,24.00
2018-08-19T05:01:39.492Z,24.00
2018-08-19T05:02:39.640Z,28.00
2018-08-19T05:03:39.546Z,28.00
2018-08-19T05:04:39.575Z,28.00
2018-08-19T05:06:39.620Z,32.00
2018-08-19T05:07:39.649Z,36.00
2018-08-19T05:08:39.662Z,36.00
2018-08-19T05:09:39.700Z,36.00
2018-08-19T05:10:39.715Z,36.00
2018-08-19T05:11:39.735Z,36.00
2018-08-19T05:12:39.776Z,36.00
2018-08-19T05:13:39.794Z,36.00
2018-08-19T05:14:39.810Z,40.00
2018-08-19T05:15:39.912Z,40.00
2018-08-19T05:16:39.878Z,44.00
2018-08-19T05:17:39.884Z,44.00
2018-08-19T05:18:39.905Z,44.00
2018-08-19T05:19:39.937Z,44.00
2018-08-19T05:20:39.963Z,44.00
2018-08-19T05:21:39.981Z,48.00
2018-08-19T05:23:40.045Z,48.00
2018-08-19T05:24:40.069Z,52.00
2018-08-19T05:25:40.087Z,52.00
2018-08-19T05:26:40.103Z,56.00
2018-08-19T05:28:40.160Z,60.00
2018-08-19T05:29:40.183Z,60.00
2018-08-19T05:30:40.200Z,60.00
2018-08-19T05:31:40.315Z,64.00
2018-08-19T05:33:40.279Z,68.00
2018-08-19T05:34:40.295Z,68.00
2018-08-19T05:35:40.510Z,72.00
2018-08-19T05:36:40.353Z,76.00
2018-08-19T05:37:40.369Z,76.00
2018-08-19T05:38:40.401Z,84.00
2018-08-19T05:39:40.417Z,80.00
2018-08-19T05:40:40.446Z,84.00
2018-08-19T05:41:40.476Z,84.00
2018-08-19T05:42:40.495Z,84.00
2018-08-19T05:43:40.521Z,84.00
2018-08-19T05:44:40.545Z,88.00
2018-08-19T05:45:40.565Z,92.00
2018-08-19T05:46:40.599Z,96.00
2018-08-19T05:47:40.615Z,96.00
2018-08-19T05:48:40.633Z,100.00
2018-08-19T05:49:40.662Z,96.00
2018-08-19T05:50:40.689Z,92.00
2018-08-19T05:51:40.712Z,96.00
2018-08-19T05:52:40.740Z,96.00
2018-08-19T05:53:40.762Z,92.00
2018-08-19T05:54:40.776Z,96.00
2018-08-19T05:55:40.891Z,100.00
2018-08-19T05:56:40.829Z,104.00
2018-08-19T05:57:40.850Z,108.00
2018-08-19T05:58:40.881Z,108.00
2018-08-19T05:59:40.902Z,112.00
2018-08-19T06:00:40.925Z,116.00
2018-08-19T06:01:40.949Z,120.00
2018-08-19T06:02:40.970Z,124.00
2018-08-19T06:03:40.994Z,132.00
2018-08-19T06:04:41.023Z,132.00
2018-08-19T06:05:41.045Z,136.00
2018-08-19T06:06:41.074Z,144.00
2018-08-19T06:07:41.193Z,144.00
2018-08-19T06:08:41.119Z,148.00
2018-08-19T06:09:41.148Z,156.00
2018-08-19T06:10:41.171Z,164.00
2018-08-19T06:11:41.197Z,180.00
2018-08-19T06:12:41.218Z,184.00
2018-08-19T06:13:41.240Z,192.00
2018-08-19T06:15:41.292Z,196.00
2018-08-19T06:16:41.319Z,196.00
2018-08-19T06:17:41.341Z,200.00
2018-08-19T06:18:41.376Z,196.00
2018-08-19T06:19:41.418Z,196.00
2018-08-19T06:20:41.428Z,196.00
2018-08-19T06:21:42.435Z,208.00
2018-08-19T06:22:41.459Z,216.00
2018-08-19T06:23:41.487Z,216.00
2018-08-19T06:24:41.600Z,216.00
2018-08-19T06:25:41.535Z,236.00
2018-08-19T06:26:41.574Z,248.00
2018-08-19T06:27:41.586Z,248.00
2018-08-19T06:28:41.605Z,252.00
2018-08-19T06:29:41.635Z,256.00
2018-08-19T06:30:41.655Z,256.00
2018-08-19T06:31:41.687Z,252.00
2018-08-19T06:32:41.707Z,236.00
2018-08-19T06:33:41.733Z,228.00
2018-08-19T06:34:41.833Z,216.00
2018-08-19T06:35:41.777Z,204.00
2018-08-19T06:36:41.814Z,204.00
2018-08-19T06:38:41.850Z,208.00
2018-08-19T06:39:41.887Z,204.00
2018-08-19T06:40:41.905Z,216.00
2018-08-19T06:41:41.927Z,216.00
2018-08-19T06:42:41.957Z,216.00
2018-08-19T06:43:41.977Z,208.00
2018-08-19T06:44:42.004Z,216.00
2018-08-19T06:45:42.025Z,216.00
2018-08-19T06:46:42.053Z,204.00
2018-08-19T06:47:42.083Z,196.00
2018-08-19T06:48:42.104Z,204.00
2018-08-19T06:49:42.128Z,204.00
2018-08-19T06:50:42.155Z,184.00
2018-08-19T06:51:42.180Z,180.00
2018-08-19T06:52:42.201Z,180.00
2018-08-19T06:53:42.225Z,188.00
2018-08-19T06:55:42.280Z,196.00
2018-08-19T06:56:42.388Z,196.00
2018-08-19T06:57:42.322Z,200.00
2018-08-19T06:58:42.354Z,224.00
2018-08-19T06:59:42.380Z,232.00
2018-08-19T07:00:42.400Z,240.00
2018-08-19T07:01:42.434Z,244.00
2018-08-19T07:02:42.451Z,232.00
2018-08-19T07:03:42.653Z,248.00
2018-08-19T07:04:42.497Z,256.00
2018-08-19T07:05:42.522Z,240.00
2018-08-19T07:06:42.563Z,228.00
2018-08-19T07:07:42.570Z,216.00
2018-08-19T07:08:42.603Z,228.00
2018-08-19T07:09:42.629Z,260.00
2018-08-19T07:10:42.657Z,252.00
2018-08-19T07:11:42.672Z,240.00
2018-08-19T07:12:42.793Z,248.00
2018-08-19T07:13:42.718Z,224.00
2018-08-19T07:14:42.748Z,212.00
2018-08-19T07:15:42.780Z,208.00
2018-08-19T07:16:42.798Z,208.00
2018-08-19T07:17:42.832Z,200.00
2018-08-19T07:18:42.898Z,208.00
2018-08-19T07:19:42.882Z,208.00
2018-08-19T07:20:42.904Z,212.00
2018-08-19T07:21:42.931Z,212.00
2018-08-19T07:22:42.950Z,212.00
2018-08-19T07:23:43.003Z,208.00
2018-08-19T07:24:42.991Z,216.00
2018-08-19T07:25:43.028Z,220.00
2018-08-19T07:26:43.039Z,228.00
2018-08-19T07:27:43.074Z,232.00
2018-08-19T07:28:43.095Z,248.00
2018-08-19T07:29:43.175Z,252.00
2018-08-19T07:30:43.149Z,272.00
2018-08-19T07:31:43.171Z,288.00
2018-08-19T07:32:43.198Z,308.00
2018-08-19T07:33:43.225Z,340.00
2018-08-19T07:34:43.256Z,332.00
2018-08-19T07:35:43.268Z,336.00
2018-08-19T07:36:43.344Z,380.00
2018-08-19T07:37:43.322Z,392.00
2018-08-19T07:38:43.346Z,380.00
2018-08-19T07:39:43.380Z,388.00
2018-08-19T07:40:43.392Z,356.00
2018-08-19T07:41:43.416Z,400.00
2018-08-19T07:42:43.451Z,396.00
2018-08-19T07:43:43.474Z,384.00
2018-08-19T07:44:43.509Z,364.00
2018-08-19T07:45:43.524Z,364.00
2018-08-19T07:46:43.547Z,380.00
2018-08-19T07:47:43.577Z,400.00
2018-08-19T07:48:44.237Z,408.00
2018-08-19T07:49:43.615Z,404.00
2018-08-19T07:50:43.651Z,404.00
2018-08-19T07:51:43.721Z,388.00
2018-08-19T07:52:43.699Z,372.00
2018-08-19T07:53:43.737Z,332.00
2018-08-19T07:54:43.750Z,308.00
2018-08-19T07:55:43.771Z,316.00
2018-08-19T07:56:43.802Z,308.00
2018-08-19T07:57:43.843Z,292.00
2018-08-19T07:58:43.853Z,288.00
2018-08-19T07:59:43.874Z,304.00
2018-08-19T08:00:43.898Z,328.00
2018-08-19T08:01:44.739Z,340.00
2018-08-19T08:02:43.955Z,356.00
2018-08-19T08:03:43.979Z,324.00
2018-08-19T08:04:43.999Z,344.00
2018-08-19T08:05:44.033Z,360.00
2018-08-19T08:06:44.062Z,364.00
2018-08-19T08:07:44.077Z,372.00
2018-08-19T08:08:44.111Z,388.00
2018-08-19T08:10:44.151Z,384.00
2018-08-19T08:11:44.174Z,420.00
2018-08-19T08:12:44.205Z,468.00
2018-08-19T08:13:44.256Z,464.00
2018-08-19T08:14:44.253Z,488.00
2018-08-19T08:15:44.282Z,428.00
2018-08-19T08:16:44.311Z,480.00
2018-08-19T08:17:44.327Z,504.00
2018-08-19T08:18:44.352Z,496.00
2018-08-19T08:19:44.381Z,436.00
2018-08-19T08:20:44.410Z,384.00
2018-08-19T08:21:44.529Z,436.00
2018-08-19T08:22:44.471Z,404.00
2018-08-19T08:23:44.482Z,360.00
2018-08-19T08:24:44.518Z,360.00
2018-08-19T08:25:44.536Z,368.00
2018-08-19T08:26:44.569Z,460.00
2018-08-19T08:27:44.595Z,424.00
2018-08-19T08:28:44.622Z,480.00
2018-08-19T08:29:44.637Z,480.00
2018-08-19T08:30:44.721Z,484.00
2018-08-19T08:31:44.690Z,496.00
2018-08-19T08:32:44.741Z,516.00
2018-08-19T08:33:44.739Z,544.00
2018-08-19T08:34:44.769Z,560.00
2018-08-19T08:35:44.805Z,556.00
2018-08-19T08:36:44.830Z,540.00
2018-08-19T08:37:44.860Z,520.00
2018-08-19T08:38:44.892Z,492.00
2018-08-19T08:39:44.892Z,464.00
2018-08-19T08:40:45.004Z,436.00
2018-08-19T08:41:44.941Z,444.00
2018-08-19T08:42:44.968Z,416.00
2018-08-19T08:43:44.995Z,416.00
2018-08-19T08:44:45.098Z,432.00
2018-08-19T08:45:45.067Z,440.00
2018-08-19T08:46:45.074Z,428.00
2018-08-19T08:47:45.201Z,440.00
2018-08-19T08:48:45.260Z,444.00
2018-08-19T08:49:45.150Z,440.00
2018-08-19T08:50:45.188Z,396.00
2018-08-19T08:51:45.209Z,464.00
2018-08-19T08:52:45.232Z,512.00
2018-08-19T08:53:45.260Z,508.00
2018-08-19T08:54:45.291Z,520.00
2018-08-19T08:55:45.311Z,536.00
2018-08-19T08:56:45.331Z,536.00
2018-08-19T08:57:45.359Z,548.00
2018-08-19T08:58:45.389Z,564.00
2018-08-19T08:59:46.268Z,568.00
2018-08-19T09:00:45.434Z,548.00
2018-08-19T09:01:45.467Z,480.00
2018-08-19T09:02:45.485Z,480.00
2018-08-19T09:03:45.516Z,564.00
2018-08-19T09:04:45.553Z,592.00
2018-08-19T09:05:45.570Z,608.00
2018-08-19T09:06:45.601Z,628.00
2018-08-19T09:07:45.634Z,644.00
2018-08-19T09:08:45.725Z,624.00
2018-08-19T09:09:45.671Z,640.00
2018-08-19T09:10:45.737Z,672.00
2018-08-19T09:11:45.728Z,696.00
2018-08-19T09:12:45.757Z,732.00
2018-08-19T09:13:45.775Z,776.00
2018-08-19T09:14:45.808Z,816.00
2018-08-19T09:16:45.864Z,732.00
2018-08-19T09:17:45.891Z,716.00
2018-08-19T09:18:45.909Z,648.00
2018-08-19T09:19:45.938Z,584.00
2018-08-19T09:20:45.956Z,556.00
2018-08-19T09:21:45.992Z,536.00
2018-08-19T09:22:46.053Z,532.00
2018-08-19T09:23:46.045Z,540.00
2018-08-19T09:24:46.069Z,560.00
2018-08-19T09:25:46.090Z,540.00
2018-08-19T09:26:46.122Z,544.00
2018-08-19T09:27:46.145Z,516.00
2018-08-19T09:28:46.175Z,512.00
2018-08-19T09:29:46.203Z,540.00
2018-08-19T09:30:46.237Z,584.00
2018-08-19T09:31:46.294Z,612.00
2018-08-19T09:32:46.324Z,632.00
2018-08-19T09:33:46.305Z,612.00
2018-08-19T09:34:46.337Z,576.00
2018-08-19T09:35:46.361Z,568.00
2018-08-19T09:36:46.385Z,584.00
2018-08-19T09:37:46.419Z,636.00
2018-08-19T09:38:46.435Z,672.00
2018-08-19T09:39:46.474Z,748.00
2018-08-19T09:40:46.631Z,840.00
2018-08-19T09:41:46.518Z,880.00
2018-08-19T09:42:46.550Z,860.00
2018-08-19T09:43:46.569Z,860.00
2018-08-19T09:44:46.603Z,836.00
2018-08-19T09:45:46.634Z,840.00
2018-08-19T09:46:46.656Z,804.00
2018-08-19T09:47:46.788Z,784.00
2018-08-19T09:48:46.710Z,808.00
2018-08-19T09:49:46.758Z,776.00
2018-08-19T09:50:46.791Z,792.00
2018-08-19T09:51:46.847Z,860.00
2018-08-19T09:52:46.825Z,836.00
2018-08-19T09:54:46.919Z,824.00
2018-08-19T09:55:46.900Z,912.00
2018-08-19T09:56:46.928Z,896.00
2018-08-19T09:57:46.959Z,884.00
2018-08-19T09:58:46.978Z,868.00
2018-08-19T09:59:47.009Z,864.00
2018-08-19T10:00:47.049Z,876.00
2018-08-19T10:01:47.066Z,860.00
2018-08-19T10:02:47.096Z,860.00
2018-08-19T10:03:47.130Z,872.00
2018-08-19T10:04:47.135Z,824.00
2018-08-19T10:05:47.188Z,716.00
2018-08-19T10:06:47.237Z,824.00
2018-08-19T10:07:47.297Z,824.00
2018-08-19T10:08:47.250Z,804.00
2018-08-19T10:09:47.280Z,828.00
2018-08-19T10:10:47.309Z,888.00
2018-08-19T10:11:47.333Z,932.00
2018-08-19T10:12:47.361Z,912.00
2018-08-19T10:13:47.476Z,876.00
2018-08-19T10:14:47.406Z,880.00
2018-08-19T10:15:47.434Z,780.00
2018-08-19T10:16:47.533Z,860.00
2018-08-19T10:17:47.529Z,880.00
2018-08-19T10:18:47.514Z,892.00
2018-08-19T10:19:47.549Z,968.00
2018-08-19T10:20:47.593Z,988.00
2018-08-19T10:21:47.610Z,944.00
2018-08-19T10:22:47.632Z,996.00
2018-08-19T10:23:47.653Z,1000.00
2018-08-19T10:24:47.677Z,1012.00
2018-08-19T10:25:47.716Z,1000.00
2018-08-19T10:26:47.749Z,916.00
2018-08-19T10:27:47.762Z,960.00
2018-08-19T10:28:47.788Z,952.00
2018-08-19T10:29:47.820Z,932.00
2018-08-19T10:30:47.859Z,924.00
2018-08-19T10:31:47.888Z,924.00
2018-08-19T10:32:47.906Z,924.00
2018-08-19T10:34:47.967Z,920.00
2018-08-19T10:35:47.995Z,996.00
2018-08-19T10:36:48.014Z,980.00
2018-08-19T10:37:48.041Z,900.00
2018-08-19T10:38:48.100Z,824.00
2018-08-19T10:39:48.101Z,864.00
2018-08-19T10:40:48.161Z,960.00
2018-08-19T10:41:48.152Z,988.00
2018-08-19T10:42:48.193Z,1004.00
2018-08-19T10:43:48.204Z,988.00
2018-08-19T10:44:48.251Z,988.00
2018-08-19T10:45:48.264Z,968.00
2018-08-19T10:46:48.296Z,968.00
2018-08-19T10:47:48.319Z,968.00
2018-08-19T10:48:48.340Z,984.00
2018-08-19T10:49:48.370Z,964.00
2018-08-19T10:50:48.403Z,976.00
2018-08-19T10:51:48.435Z,996.00
2018-08-19T10:52:48.452Z,988.00
2018-08-19T10:54:48.512Z,960.00
2018-08-19T10:55:48.546Z,980.00
2018-08-19T10:56:48.581Z,1000.00
2018-08-19T10:57:48.596Z,1040.00
2018-08-19T10:58:48.657Z,1036.00
2018-08-19T10:59:48.705Z,1056.00
2018-08-19T11:00:48.680Z,1088.00
2018-08-19T11:01:48.709Z,1072.00
2018-08-19T11:02:48.750Z,1052.00
2018-08-19T11:03:48.769Z,1092.00
2018-08-19T11:04:48.804Z,1216.00
2018-08-19T11:05:48.814Z,1324.00
2018-08-19T11:06:48.865Z,1276.00
2018-08-19T11:07:48.900Z,1204.00
2018-08-19T11:08:48.903Z,1152.00
2018-08-19T11:09:48.927Z,1112.00
2018-08-19T11:10:48.973Z,1092.00
2018-08-19T11:11:49.843Z,1124.00
2018-08-19T11:12:49.022Z,1204.00
2018-08-19T11:13:49.052Z,1240.00
2018-08-19T11:14:49.068Z,1244.00
2018-08-19T11:15:49.098Z,1252.00
2018-08-19T11:16:49.135Z,1264.00
2018-08-19T11:17:49.150Z,1276.00
2018-08-19T11:18:49.199Z,1276.00
2018-08-19T11:19:49.214Z,1288.00
2018-08-19T11:20:49.239Z,1268.00
2018-08-19T11:21:49.282Z,1292.00
2018-08-19T11:22:49.293Z,1240.00
2018-08-19T11:23:49.336Z,1264.00
2018-08-19T11:24:49.361Z,1288.00
2018-08-19T11:25:49.383Z,1352.00
2018-08-19T11:26:49.406Z,1244.00
2018-08-19T11:27:49.454Z,1196.00
2018-08-19T11:28:49.462Z,1148.00
2018-08-19T11:29:49.488Z,1088.00
2018-08-19T11:30:49.522Z,1064.00
2018-08-19T11:31:49.589Z,1108.00
2018-08-19T11:32:49.583Z,1088.00
2018-08-19T11:33:49.647Z,1060.00
2018-08-19T11:34:49.644Z,1064.00
2018-08-19T11:35:49.663Z,1084.00
2018-08-19T11:36:49.700Z,1084.00
2018-08-19T11:37:49.718Z,1100.00
2018-08-19T11:38:49.748Z,1100.00
2018-08-19T11:39:49.770Z,1112.00
2018-08-19T11:40:49.799Z,1116.00
2018-08-19T11:41:49.831Z,1128.00
2018-08-19T11:42:49.862Z,1160.00
2018-08-19T11:43:49.885Z,1180.00
2018-08-19T11:44:49.925Z,1212.00
2018-08-19T11:45:49.953Z,1220.00
2018-08-19T11:46:49.986Z,1236.00
2018-08-19T11:47:50.005Z,1256.00
2018-08-19T11:48:50.103Z,1264.00
2018-08-19T11:49:50.065Z,1260.00
2018-08-19T11:50:50.118Z,1264.00
2018-08-19T11:51:50.144Z,1272.00
2018-08-19T11:52:50.162Z,1296.00
2018-08-19T11:53:50.176Z,1304.00
2018-08-19T11:54:50.203Z,1308.00
2018-08-19T11:55:50.238Z,1288.00
2018-08-19T11:56:50.261Z,1300.00
2018-08-19T11:57:50.294Z,1324.00
2018-08-19T11:58:50.318Z,1332.00
2018-08-19T11:59:50.355Z,1328.00
2018-08-19T12:00:50.376Z,1340.00
2018-08-19T12:01:50.408Z,1348.00
2018-08-19T12:03:50.461Z,1316.00
2018-08-19T12:04:50.492Z,1280.00
2018-08-19T12:05:50.529Z,1248.00
2018-08-19T12:06:50.560Z,1272.00
2018-08-19T12:07:50.575Z,1220.00
2018-08-19T12:08:50.609Z,1152.00
2018-08-19T12:09:50.640Z,1148.00
2018-08-19T12:10:50.681Z,1152.00
2018-08-19T12:11:50.692Z,1152.00
2018-08-19T12:13:50.760Z,1052.00
2018-08-19T12:14:50.777Z,976.00
2018-08-19T12:15:50.821Z,980.00
2018-08-19T12:16:50.869Z,976.00
2018-08-19T12:17:50.872Z,1028.00
2018-08-19T12:18:50.899Z,1036.00
2018-08-19T12:19:50.923Z,1036.00
2018-08-19T12:20:50.966Z,1000.00
2018-08-19T12:21:50.989Z,980.00
2018-08-19T12:22:51.011Z,984.00
2018-08-19T12:23:51.063Z,984.00
2018-08-19T12:24:51.073Z,976.00
2018-08-19T12:25:51.101Z,964.00
2018-08-19T12:26:51.135Z,960.00
2018-08-19T12:27:51.266Z,928.00
2018-08-19T12:28:51.217Z,920.00
2018-08-19T12:29:51.221Z,924.00
2018-08-19T12:30:51.256Z,912.00
2018-08-19T12:31:51.274Z,940.00
2018-08-19T12:32:51.322Z,924.00
2018-08-19T12:33:51.336Z,924.00
2018-08-19T12:34:51.366Z,960.00
2018-08-19T12:35:51.393Z,956.00
2018-08-19T12:36:51.962Z,956.00
2018-08-19T12:37:51.453Z,956.00
2018-08-19T12:38:51.486Z,940.00
2018-08-19T12:39:51.514Z,940.00
2018-08-19T12:40:51.581Z,952.00
2018-08-19T12:41:51.570Z,952.00
2018-08-19T12:42:51.624Z,948.00
2018-08-19T12:43:51.631Z,968.00
2018-08-19T12:44:51.743Z,960.00
2018-08-19T12:45:51.686Z,956.00
2018-08-19T12:46:51.721Z,960.00
2018-08-19T12:47:51.749Z,932.00
2018-08-19T12:48:51.774Z,920.00
2018-08-19T12:49:51.825Z,896.00
2018-08-19T12:50:51.837Z,888.00
2018-08-19T12:51:51.864Z,896.00
2018-08-19T12:52:51.893Z,856.00
2018-08-19T12:53:51.925Z,836.00
2018-08-19T12:54:51.953Z,860.00
2018-08-19T12:55:52.039Z,840.00
2018-08-19T12:56:52.002Z,848.00
2018-08-19T12:57:52.027Z,832.00
2018-08-19T12:58:52.080Z,828.00
2018-08-19T12:59:52.088Z,816.00
2018-08-19T13:00:52.131Z,800.00
2018-08-19T13:01:52.159Z,788.00
2018-08-19T13:02:52.186Z,784.00
2018-08-19T13:03:52.220Z,772.00
2018-08-19T13:04:52.241Z,768.00
2018-08-19T13:05:52.267Z,764.00